sensor_id;sensor_type;location;lat;lon;timestamp;temperature;humidity
48946;DHT22;34999;50.940;3.998;2023-09-19T00:00:48;14.90;99.90
48946;DHT22;34999;50.940;3.998;2023-09-19T00:03:17;14.80;99.90
48946;DHT22;34999;50.940;3.998;2023-09-19T00:05:45;14.80;99.90
48946;DHT22;34999;50.940;3.998;2023-09-19T00:08:14;14.80;99.90
48946;DHT22;34999;50.940;3.998;2023-09-19T00:14:26;14.90;99.90
48946;DHT22;34999;50.940;3.998;2023-09-19T00:16:54;14.80;99.90
48946;DHT22;34999;50.940;3.998;2023-09-19T00:19:23;14.80;99.90
48946;DHT22;34999;50.940;3.998;2023-09-19T00:21:52;14.80;99.90
48946;DHT22;34999;50.940;3.998;2023-09-19T00:24:21;14.80;99.90
48946;DHT22;34999;50.940;3.998;2023-09-19T00:26:50;14.80;99.90
48946;DHT22;34999;50.940;3.998;2023-09-19T00:29:18;14.70;99.90
48946;DHT22;34999;50.940;3.998;2023-09-19T00:31:48;14.70;99.90
48946;DHT22;34999;50.940;3.998;2023-09-19T00:34:17;14.60;99.90
48946;DHT22;34999;50.940;3.998;2023-09-19T00:36:46;14.60;99.90
48946;DHT22;34999;50.940;3.998;2023-09-19T00:39:14;14.50;99.90
48946;DHT22;34999;50.940;3.998;2023-09-19T00:41:43;14.50;99.90
48946;DHT22;34999;50.940;3.998;2023-09-19T00:44:11;14.60;99.90
48946;DHT22;34999;50.940;3.998;2023-09-19T00:46:40;14.60;99.90
48946;DHT22;34999;50.940;3.998;2023-09-19T00:49:11;14.60;99.90
48946;DHT22;34999;50.940;3.998;2023-09-19T00:51:40;14.60;99.90
48946;DHT22;34999;50.940;3.998;2023-09-19T00:54:13;14.50;99.90
48946;DHT22;34999;50.940;3.998;2023-09-19T00:56:45;14.50;99.90
48946;DHT22;34999;50.940;3.998;2023-09-19T00:59:16;14.50;99.90
48946;DHT22;34999;50.940;3.998;2023-09-19T01:01:44;14.50;99.90
48946;DHT22;34999;50.940;3.998;2023-09-19T01:04:16;14.50;99.90
48946;DHT22;34999;50.940;3.998;2023-09-19T01:06:45;14.50;99.90
48946;DHT22;34999;50.940;3.998;2023-09-19T01:09:13;14.50;99.90
48946;DHT22;34999;50.940;3.998;2023-09-19T01:11:45;14.50;99.90
48946;DHT22;34999;50.940;3.998;2023-09-19T01:14:29;14.50;99.90
48946;DHT22;34999;50.940;3.998;2023-09-19T01:17:05;14.50;99.90
48946;DHT22;34999;50.940;3.998;2023-09-19T01:20:15;14.60;99.90
48946;DHT22;34999;50.940;3.998;2023-09-19T01:22:55;14.60;99.90
48946;DHT22;34999;50.940;3.998;2023-09-19T01:28:53;14.60;99.90
48946;DHT22;34999;50.940;3.998;2023-09-19T01:31:24;14.60;99.90
48946;DHT22;34999;50.940;3.998;2023-09-19T01:33:58;14.70;99.90
48946;DHT22;34999;50.940;3.998;2023-09-19T01:36:29;14.70;99.90
48946;DHT22;34999;50.940;3.998;2023-09-19T01:38:59;14.70;99.90
48946;DHT22;34999;50.940;3.998;2023-09-19T01:41:45;14.70;99.90
48946;DHT22;34999;50.940;3.998;2023-09-19T01:44:21;14.70;99.90
48946;DHT22;34999;50.940;3.998;2023-09-19T01:46:55;14.70;99.90
48946;DHT22;34999;50.940;3.998;2023-09-19T01:49:33;14.70;99.90
48946;DHT22;34999;50.940;3.998;2023-09-19T01:52:09;14.70;99.90
48946;DHT22;34999;50.940;3.998;2023-09-19T01:54:46;14.80;99.90
48946;DHT22;34999;50.940;3.998;2023-09-19T01:57:20;14.80;99.90
48946;DHT22;34999;50.940;3.998;2023-09-19T01:59:54;14.80;99.90
48946;DHT22;34999;50.940;3.998;2023-09-19T02:02:26;14.80;99.90
48946;DHT22;34999;50.940;3.998;2023-09-19T02:04:56;14.80;99.90
48946;DHT22;34999;50.940;3.998;2023-09-19T02:07:24;14.80;99.90
48946;DHT22;34999;50.940;3.998;2023-09-19T02:09:54;14.90;99.90
48946;DHT22;34999;50.940;3.998;2023-09-19T02:12:23;14.90;99.90
48946;DHT22;34999;50.940;3.998;2023-09-19T02:14:51;14.90;99.90
48946;DHT22;34999;50.940;3.998;2023-09-19T02:17:19;14.90;99.90
48946;DHT22;34999;50.940;3.998;2023-09-19T02:19:49;14.80;99.90
48946;DHT22;34999;50.940;3.998;2023-09-19T02:22:19;14.80;99.90
48946;DHT22;34999;50.940;3.998;2023-09-19T02:28:28;14.90;99.90
48946;DHT22;34999;50.940;3.998;2023-09-19T02:30:59;14.90;99.90
48946;DHT22;34999;50.940;3.998;2023-09-19T02:33:28;14.90;99.90
48946;DHT22;34999;50.940;3.998;2023-09-19T02:36:01;14.90;99.90
48946;DHT22;34999;50.940;3.998;2023-09-19T02:38:31;14.90;99.90
48946;DHT22;34999;50.940;3.998;2023-09-19T02:40:59;14.90;99.90
48946;DHT22;34999;50.940;3.998;2023-09-19T02:43:28;14.80;99.90
48946;DHT22;34999;50.940;3.998;2023-09-19T02:45:57;14.90;99.90
48946;DHT22;34999;50.940;3.998;2023-09-19T02:48:25;14.80;99.90
48946;DHT22;34999;50.940;3.998;2023-09-19T02:50:54;14.80;99.90
48946;DHT22;34999;50.940;3.998;2023-09-19T02:53:24;14.90;99.90
48946;DHT22;34999;50.940;3.998;2023-09-19T02:55:52;14.90;99.90
48946;DHT22;34999;50.940;3.998;2023-09-19T02:58:21;14.90;99.90
48946;DHT22;34999;50.940;3.998;2023-09-19T03:00:52;15.00;99.90
48946;DHT22;34999;50.940;3.998;2023-09-19T03:03:23;14.90;99.90
48946;DHT22;34999;50.940;3.998;2023-09-19T03:05:54;14.90;99.90
48946;DHT22;34999;50.940;3.998;2023-09-19T03:08:24;14.90;99.90
48946;DHT22;34999;50.940;3.998;2023-09-19T03:10:53;15.00;99.90
48946;DHT22;34999;50.940;3.998;2023-09-19T03:13:21;15.00;99.90
48946;DHT22;34999;50.940;3.998;2023-09-19T03:15:49;15.00;99.90
48946;DHT22;34999;50.940;3.998;2023-09-19T03:18:18;15.00;99.90
48946;DHT22;34999;50.940;3.998;2023-09-19T03:20:53;15.00;99.90
48946;DHT22;34999;50.940;3.998;2023-09-19T03:23:23;15.00;99.90
48946;DHT22;34999;50.940;3.998;2023-09-19T03:25:53;14.90;99.90
48946;DHT22;34999;50.940;3.998;2023-09-19T03:28:22;15.00;99.90
48946;DHT22;34999;50.940;3.998;2023-09-19T03:31:00;15.00;99.90
48946;DHT22;34999;50.940;3.998;2023-09-19T03:33:29;15.00;99.90
48946;DHT22;34999;50.940;3.998;2023-09-19T03:36:00;14.90;99.90
48946;DHT22;34999;50.940;3.998;2023-09-19T03:41:39;14.90;99.90
48946;DHT22;34999;50.940;3.998;2023-09-19T03:44:07;14.90;99.90
48946;DHT22;34999;50.940;3.998;2023-09-19T03:46:35;15.00;99.90
48946;DHT22;34999;50.940;3.998;2023-09-19T03:52:45;14.90;99.90
48946;DHT22;34999;50.940;3.998;2023-09-19T03:55:14;14.80;99.90
48946;DHT22;34999;50.940;3.998;2023-09-19T03:57:48;14.70;99.90
48946;DHT22;34999;50.940;3.998;2023-09-19T04:00:16;14.70;99.90
48946;DHT22;34999;50.940;3.998;2023-09-19T04:02:48;14.60;99.90
48946;DHT22;34999;50.940;3.998;2023-09-19T04:05:16;14.60;99.90
48946;DHT22;34999;50.940;3.998;2023-09-19T04:07:45;14.50;99.90
48946;DHT22;34999;50.940;3.998;2023-09-19T04:10:13;14.50;99.90
48946;DHT22;34999;50.940;3.998;2023-09-19T04:12:52;14.40;99.90
48946;DHT22;34999;50.940;3.998;2023-09-19T04:15:21;14.40;99.90
48946;DHT22;34999;50.940;3.998;2023-09-19T04:17:50;14.40;99.90
48946;DHT22;34999;50.940;3.998;2023-09-19T04:20:19;14.30;99.90
48946;DHT22;34999;50.940;3.998;2023-09-19T04:22:49;14.30;99.90
48946;DHT22;34999;50.940;3.998;2023-09-19T04:25:17;14.30;99.90
48946;DHT22;34999;50.940;3.998;2023-09-19T04:27:47;14.30;99.90
48946;DHT22;34999;50.940;3.998;2023-09-19T04:30:19;14.20;99.90
48946;DHT22;34999;50.940;3.998;2023-09-19T04:32:48;14.10;99.90
48946;DHT22;34999;50.940;3.998;2023-09-19T04:35:18;14.10;99.90
48946;DHT22;34999;50.940;3.998;2023-09-19T04:37:47;14.10;99.90
48946;DHT22;34999;50.940;3.998;2023-09-19T04:40:15;14.10;99.90
48946;DHT22;34999;50.940;3.998;2023-09-19T04:42:45;14.00;99.90
48946;DHT22;34999;50.940;3.998;2023-09-19T04:45:15;14.00;99.90
48946;DHT22;34999;50.940;3.998;2023-09-19T04:47:44;14.00;99.90
48946;DHT22;34999;50.940;3.998;2023-09-19T04:50:13;14.00;99.90
48946;DHT22;34999;50.940;3.998;2023-09-19T04:52:42;14.00;99.90
48946;DHT22;34999;50.940;3.998;2023-09-19T04:55:12;13.90;99.90
48946;DHT22;34999;50.940;3.998;2023-09-19T04:57:45;13.90;99.90
48946;DHT22;34999;50.940;3.998;2023-09-19T05:00:14;13.90;99.90
48946;DHT22;34999;50.940;3.998;2023-09-19T05:02:45;13.90;99.90
48946;DHT22;34999;50.940;3.998;2023-09-19T05:05:14;13.90;99.90
48946;DHT22;34999;50.940;3.998;2023-09-19T05:07:44;13.90;99.90
48946;DHT22;34999;50.940;3.998;2023-09-19T05:10:13;13.90;99.90
48946;DHT22;34999;50.940;3.998;2023-09-19T05:12:41;13.90;99.90
48946;DHT22;34999;50.940;3.998;2023-09-19T05:15:12;13.90;99.90
48946;DHT22;34999;50.940;3.998;2023-09-19T05:17:49;13.90;99.90
48946;DHT22;34999;50.940;3.998;2023-09-19T05:20:23;13.90;99.90
48946;DHT22;34999;50.940;3.998;2023-09-19T05:23:03;13.90;99.90
48946;DHT22;34999;50.940;3.998;2023-09-19T05:25:36;14.00;99.90
48946;DHT22;34999;50.940;3.998;2023-09-19T05:28:06;14.00;99.90
48946;DHT22;34999;50.940;3.998;2023-09-19T05:30:35;14.00;99.90
48946;DHT22;34999;50.940;3.998;2023-09-19T05:33:07;14.00;99.90
48946;DHT22;34999;50.940;3.998;2023-09-19T05:35:36;14.00;99.90
48946;DHT22;34999;50.940;3.998;2023-09-19T05:38:06;14.10;99.90
48946;DHT22;34999;50.940;3.998;2023-09-19T05:40:36;14.10;99.90
48946;DHT22;34999;50.940;3.998;2023-09-19T05:43:05;14.00;99.90
48946;DHT22;34999;50.940;3.998;2023-09-19T05:45:34;14.10;99.90
48946;DHT22;34999;50.940;3.998;2023-09-19T05:48:10;14.10;99.90
48946;DHT22;34999;50.940;3.998;2023-09-19T05:50:39;14.10;99.90
48946;DHT22;34999;50.940;3.998;2023-09-19T05:53:07;14.10;99.90
48946;DHT22;34999;50.940;3.998;2023-09-19T05:55:42;14.10;99.90
48946;DHT22;34999;50.940;3.998;2023-09-19T05:58:10;14.10;99.90
48946;DHT22;34999;50.940;3.998;2023-09-19T06:00:41;14.10;99.90
48946;DHT22;34999;50.940;3.998;2023-09-19T06:03:13;14.20;99.90
48946;DHT22;34999;50.940;3.998;2023-09-19T06:05:42;14.20;99.90
48946;DHT22;34999;50.940;3.998;2023-09-19T06:08:10;14.30;99.90
48946;DHT22;34999;50.940;3.998;2023-09-19T06:10:39;14.20;99.90
48946;DHT22;34999;50.940;3.998;2023-09-19T06:16:49;14.30;99.90
48946;DHT22;34999;50.940;3.998;2023-09-19T06:19:19;14.30;99.90
48946;DHT22;34999;50.940;3.998;2023-09-19T06:21:50;14.30;99.90
48946;DHT22;34999;50.940;3.998;2023-09-19T06:24:18;14.40;99.90
48946;DHT22;34999;50.940;3.998;2023-09-19T06:26:48;14.50;99.90
48946;DHT22;34999;50.940;3.998;2023-09-19T06:29:16;14.50;99.90
48946;DHT22;34999;50.940;3.998;2023-09-19T06:31:45;14.60;99.90
48946;DHT22;34999;50.940;3.998;2023-09-19T06:34:14;14.70;99.90
48946;DHT22;34999;50.940;3.998;2023-09-19T06:36:44;14.70;99.90
48946;DHT22;34999;50.940;3.998;2023-09-19T06:39:13;14.70;99.90
48946;DHT22;34999;50.940;3.998;2023-09-19T06:41:41;14.70;99.90
48946;DHT22;34999;50.940;3.998;2023-09-19T06:44:10;14.80;99.90
48946;DHT22;34999;50.940;3.998;2023-09-19T06:46:38;14.90;99.90
48946;DHT22;34999;50.940;3.998;2023-09-19T06:49:07;14.90;99.90
48946;DHT22;34999;50.940;3.998;2023-09-19T06:51:37;15.00;99.90
48946;DHT22;34999;50.940;3.998;2023-09-19T06:54:07;15.00;99.90
48946;DHT22;34999;50.940;3.998;2023-09-19T06:56:35;15.00;99.90
48946;DHT22;34999;50.940;3.998;2023-09-19T06:59:04;15.10;99.90
48946;DHT22;34999;50.940;3.998;2023-09-19T07:01:34;15.10;99.90
48946;DHT22;34999;50.940;3.998;2023-09-19T07:04:03;15.20;99.90
48946;DHT22;34999;50.940;3.998;2023-09-19T07:10:14;15.30;99.90
48946;DHT22;34999;50.940;3.998;2023-09-19T07:12:43;15.50;99.90
48946;DHT22;34999;50.940;3.998;2023-09-19T07:15:11;15.70;99.90
48946;DHT22;34999;50.940;3.998;2023-09-19T07:17:40;15.80;99.90
48946;DHT22;34999;50.940;3.998;2023-09-19T07:20:09;15.80;99.90
48946;DHT22;34999;50.940;3.998;2023-09-19T07:22:43;15.80;99.90
48946;DHT22;34999;50.940;3.998;2023-09-19T07:25:11;15.90;99.90
48946;DHT22;34999;50.940;3.998;2023-09-19T07:27:42;16.10;99.90
48946;DHT22;34999;50.940;3.998;2023-09-19T07:30:12;16.20;99.90
48946;DHT22;34999;50.940;3.998;2023-09-19T07:32:42;16.20;99.90
48946;DHT22;34999;50.940;3.998;2023-09-19T07:35:10;16.30;99.90
48946;DHT22;34999;50.940;3.998;2023-09-19T07:37:39;16.30;99.90
48946;DHT22;34999;50.940;3.998;2023-09-19T07:40:08;16.40;99.90
48946;DHT22;34999;50.940;3.998;2023-09-19T07:42:37;16.60;99.90
48946;DHT22;34999;50.940;3.998;2023-09-19T07:45:10;16.70;99.90
48946;DHT22;34999;50.940;3.998;2023-09-19T07:47:44;16.70;99.90
48946;DHT22;34999;50.940;3.998;2023-09-19T07:50:13;16.80;99.90
48946;DHT22;34999;50.940;3.998;2023-09-19T07:52:44;16.80;99.90
48946;DHT22;34999;50.940;3.998;2023-09-19T07:55:12;16.90;99.90
48946;DHT22;34999;50.940;3.998;2023-09-19T07:57:43;17.00;99.90
48946;DHT22;34999;50.940;3.998;2023-09-19T08:00:15;17.10;99.90
48946;DHT22;34999;50.940;3.998;2023-09-19T08:02:44;17.10;99.90
48946;DHT22;34999;50.940;3.998;2023-09-19T08:05:24;17.30;99.90
48946;DHT22;34999;50.940;3.998;2023-09-19T08:08:13;17.40;99.90
48946;DHT22;34999;50.940;3.998;2023-09-19T08:10:43;17.40;99.90
48946;DHT22;34999;50.940;3.998;2023-09-19T08:13:16;17.40;99.90
48946;DHT22;34999;50.940;3.998;2023-09-19T08:15:46;17.50;99.90
48946;DHT22;34999;50.940;3.998;2023-09-19T08:18:16;17.60;99.90
48946;DHT22;34999;50.940;3.998;2023-09-19T08:20:49;17.50;99.90
48946;DHT22;34999;50.940;3.998;2023-09-19T08:23:18;17.50;99.90
48946;DHT22;34999;50.940;3.998;2023-09-19T08:25:47;17.50;99.90
48946;DHT22;34999;50.940;3.998;2023-09-19T08:28:15;17.70;99.90
48946;DHT22;34999;50.940;3.998;2023-09-19T08:30:47;17.80;99.90
48946;DHT22;34999;50.940;3.998;2023-09-19T08:33:16;18.00;99.90
48946;DHT22;34999;50.940;3.998;2023-09-19T08:35:45;18.10;99.90
48946;DHT22;34999;50.940;3.998;2023-09-19T08:38:13;18.10;99.90
48946;DHT22;34999;50.940;3.998;2023-09-19T08:40:42;18.20;99.90
48946;DHT22;34999;50.940;3.998;2023-09-19T08:43:10;18.20;99.90
48946;DHT22;34999;50.940;3.998;2023-09-19T08:45:40;18.30;99.90
48946;DHT22;34999;50.940;3.998;2023-09-19T08:48:23;18.30;99.90
48946;DHT22;34999;50.940;3.998;2023-09-19T08:50:56;18.20;99.90
48946;DHT22;34999;50.940;3.998;2023-09-19T08:53:28;18.30;99.90
48946;DHT22;34999;50.940;3.998;2023-09-19T08:56:00;18.20;99.90
48946;DHT22;34999;50.940;3.998;2023-09-19T08:58:34;18.20;99.90
48946;DHT22;34999;50.940;3.998;2023-09-19T09:01:04;18.10;99.90
48946;DHT22;34999;50.940;3.998;2023-09-19T09:03:35;18.20;99.90
48946;DHT22;34999;50.940;3.998;2023-09-19T09:06:07;18.20;99.90
48946;DHT22;34999;50.940;3.998;2023-09-19T09:08:37;18.20;99.90
48946;DHT22;34999;50.940;3.998;2023-09-19T09:11:07;18.30;99.90
48946;DHT22;34999;50.940;3.998;2023-09-19T09:13:36;18.30;99.90
48946;DHT22;34999;50.940;3.998;2023-09-19T09:16:06;18.30;99.90
48946;DHT22;34999;50.940;3.998;2023-09-19T09:18:36;18.40;99.90
48946;DHT22;34999;50.940;3.998;2023-09-19T09:21:04;18.40;99.90
48946;DHT22;34999;50.940;3.998;2023-09-19T09:23:33;18.50;99.90
48946;DHT22;34999;50.940;3.998;2023-09-19T09:26:01;18.60;99.90
48946;DHT22;34999;50.940;3.998;2023-09-19T09:28:33;18.50;99.90
48946;DHT22;34999;50.940;3.998;2023-09-19T09:31:03;18.50;99.90
48946;DHT22;34999;50.940;3.998;2023-09-19T09:33:36;18.30;99.90
48946;DHT22;34999;50.940;3.998;2023-09-19T09:36:07;18.30;99.90
48946;DHT22;34999;50.940;3.998;2023-09-19T09:38:44;18.20;99.90
48946;DHT22;34999;50.940;3.998;2023-09-19T09:41:15;18.40;99.90
48946;DHT22;34999;50.940;3.998;2023-09-19T09:43:54;18.40;99.90
48946;DHT22;34999;50.940;3.998;2023-09-19T09:46:23;18.40;99.90
48946;DHT22;34999;50.940;3.998;2023-09-19T09:49:10;18.40;99.90
48946;DHT22;34999;50.940;3.998;2023-09-19T09:52:04;18.50;99.90
48946;DHT22;34999;50.940;3.998;2023-09-19T09:54:37;18.60;99.90
48946;DHT22;34999;50.940;3.998;2023-09-19T09:57:10;18.70;99.90
48946;DHT22;34999;50.940;3.998;2023-09-19T09:59:45;18.80;99.90
48946;DHT22;34999;50.940;3.998;2023-09-19T10:02:15;19.00;99.90
48946;DHT22;34999;50.940;3.998;2023-09-19T10:04:52;19.10;99.90
48946;DHT22;34999;50.940;3.998;2023-09-19T10:07:27;19.10;99.90
48946;DHT22;34999;50.940;3.998;2023-09-19T10:10:00;19.10;99.90
48946;DHT22;34999;50.940;3.998;2023-09-19T10:12:44;19.20;99.90
48946;DHT22;34999;50.940;3.998;2023-09-19T10:15:17;19.50;99.90
48946;DHT22;34999;50.940;3.998;2023-09-19T10:17:48;19.70;99.90
48946;DHT22;34999;50.940;3.998;2023-09-19T10:20:18;19.70;99.90
48946;DHT22;34999;50.940;3.998;2023-09-19T10:23:01;19.70;99.90
48946;DHT22;34999;50.940;3.998;2023-09-19T10:25:38;20.00;99.90
48946;DHT22;34999;50.940;3.998;2023-09-19T10:28:08;19.90;99.90
48946;DHT22;34999;50.940;3.998;2023-09-19T10:30:41;19.90;99.90
48946;DHT22;34999;50.940;3.998;2023-09-19T10:33:13;20.10;99.90
48946;DHT22;34999;50.940;3.998;2023-09-19T10:35:44;20.30;99.90
48946;DHT22;34999;50.940;3.998;2023-09-19T10:38:18;20.40;99.90
48946;DHT22;34999;50.940;3.998;2023-09-19T10:40:50;20.30;99.90
48946;DHT22;34999;50.940;3.998;2023-09-19T10:43:20;20.30;99.90
48946;DHT22;34999;50.940;3.998;2023-09-19T10:45:49;20.40;99.90
48946;DHT22;34999;50.940;3.998;2023-09-19T10:48:20;20.50;99.90
48946;DHT22;34999;50.940;3.998;2023-09-19T10:51:01;20.50;99.90
48946;DHT22;34999;50.940;3.998;2023-09-19T10:53:45;20.60;99.90
48946;DHT22;34999;50.940;3.998;2023-09-19T10:56:18;20.60;99.90
48946;DHT22;34999;50.940;3.998;2023-09-19T10:58:48;20.80;99.90
48946;DHT22;34999;50.940;3.998;2023-09-19T11:11:51;21.00;99.90
48946;DHT22;34999;50.940;3.998;2023-09-19T11:14:37;20.80;99.90
48946;DHT22;34999;50.940;3.998;2023-09-19T11:30:45;20.70;99.90
48946;DHT22;34999;50.940;3.998;2023-09-19T11:33:19;21.00;99.90
48946;DHT22;34999;50.940;3.998;2023-09-19T11:36:02;21.20;99.90
48946;DHT22;34999;50.940;3.998;2023-09-19T11:38:57;21.00;99.90
48946;DHT22;34999;50.940;3.998;2023-09-19T11:41:39;20.80;99.90
48946;DHT22;34999;50.940;3.998;2023-09-19T11:44:32;20.80;99.90
48946;DHT22;34999;50.940;3.998;2023-09-19T11:47:05;20.90;99.90
48946;DHT22;34999;50.940;3.998;2023-09-19T11:49:34;21.00;99.90
48946;DHT22;34999;50.940;3.998;2023-09-19T11:52:04;20.90;99.90
48946;DHT22;34999;50.940;3.998;2023-09-19T11:54:35;20.90;99.90
48946;DHT22;34999;50.940;3.998;2023-09-19T11:57:08;21.20;99.90
48946;DHT22;34999;50.940;3.998;2023-09-19T11:59:39;21.40;99.90
48946;DHT22;34999;50.940;3.998;2023-09-19T12:02:12;21.20;99.90
48946;DHT22;34999;50.940;3.998;2023-09-19T12:04:45;21.10;99.90
48946;DHT22;34999;50.940;3.998;2023-09-19T12:07:16;21.20;99.90
48946;DHT22;34999;50.940;3.998;2023-09-19T12:09:47;21.20;99.90
48946;DHT22;34999;50.940;3.998;2023-09-19T12:12:19;21.20;99.90
48946;DHT22;34999;50.940;3.998;2023-09-19T12:14:48;21.10;99.90
48946;DHT22;34999;50.940;3.998;2023-09-19T12:17:18;20.80;99.90
48946;DHT22;34999;50.940;3.998;2023-09-19T12:19:51;20.60;99.90
48946;DHT22;34999;50.940;3.998;2023-09-19T12:22:20;20.50;99.90
48946;DHT22;34999;50.940;3.998;2023-09-19T12:24:48;20.70;99.90
48946;DHT22;34999;50.940;3.998;2023-09-19T12:27:18;20.80;99.90
48946;DHT22;34999;50.940;3.998;2023-09-19T12:29:47;21.00;99.90
48946;DHT22;34999;50.940;3.998;2023-09-19T12:32:18;20.90;99.90
48946;DHT22;34999;50.940;3.998;2023-09-19T12:35:01;21.10;99.90
48946;DHT22;34999;50.940;3.998;2023-09-19T12:37:34;21.20;99.90
48946;DHT22;34999;50.940;3.998;2023-09-19T12:40:05;21.20;99.90
48946;DHT22;34999;50.940;3.998;2023-09-19T12:42:45;21.00;99.90
48946;DHT22;34999;50.940;3.998;2023-09-19T12:45:15;20.80;99.90
48946;DHT22;34999;50.940;3.998;2023-09-19T12:48:19;20.80;99.90
48946;DHT22;34999;50.940;3.998;2023-09-19T12:51:04;20.80;99.90
48946;DHT22;34999;50.940;3.998;2023-09-19T12:53:36;20.80;99.90
48946;DHT22;34999;50.940;3.998;2023-09-19T12:56:09;20.70;99.90
48946;DHT22;34999;50.940;3.998;2023-09-19T12:58:49;20.70;99.90
48946;DHT22;34999;50.940;3.998;2023-09-19T13:01:17;20.60;99.90
48946;DHT22;34999;50.940;3.998;2023-09-19T13:04:11;20.50;99.90
48946;DHT22;34999;50.940;3.998;2023-09-19T13:06:42;20.50;99.90
48946;DHT22;34999;50.940;3.998;2023-09-19T13:09:11;20.70;99.90
48946;DHT22;34999;50.940;3.998;2023-09-19T13:11:42;20.90;99.90
48946;DHT22;34999;50.940;3.998;2023-09-19T13:14:17;21.10;99.90
48946;DHT22;34999;50.940;3.998;2023-09-19T13:17:00;21.10;99.90
48946;DHT22;34999;50.940;3.998;2023-09-19T13:19:38;21.10;99.90
48946;DHT22;34999;50.940;3.998;2023-09-19T13:22:39;21.00;99.90
48946;DHT22;34999;50.940;3.998;2023-09-19T13:25:10;20.90;99.90
48946;DHT22;34999;50.940;3.998;2023-09-19T13:27:42;20.80;99.90
48946;DHT22;34999;50.940;3.998;2023-09-19T13:30:12;20.80;99.90
48946;DHT22;34999;50.940;3.998;2023-09-19T13:32:40;20.90;99.90
48946;DHT22;34999;50.940;3.998;2023-09-19T13:35:11;21.00;99.90
48946;DHT22;34999;50.940;3.998;2023-09-19T13:37:41;21.00;99.90
48946;DHT22;34999;50.940;3.998;2023-09-19T13:40:11;20.90;99.90
48946;DHT22;34999;50.940;3.998;2023-09-19T13:42:40;21.00;99.90
48946;DHT22;34999;50.940;3.998;2023-09-19T13:45:08;21.10;99.90
48946;DHT22;34999;50.940;3.998;2023-09-19T13:47:42;21.10;99.90
48946;DHT22;34999;50.940;3.998;2023-09-19T13:50:13;21.00;99.90
48946;DHT22;34999;50.940;3.998;2023-09-19T13:52:41;20.80;99.90
48946;DHT22;34999;50.940;3.998;2023-09-19T13:55:09;20.60;99.90
48946;DHT22;34999;50.940;3.998;2023-09-19T13:57:42;20.50;99.90
48946;DHT22;34999;50.940;3.998;2023-09-19T14:00:12;20.50;99.90
48946;DHT22;34999;50.940;3.998;2023-09-19T14:02:44;20.70;99.90
48946;DHT22;34999;50.940;3.998;2023-09-19T14:05:33;20.80;99.90
48946;DHT22;34999;50.940;3.998;2023-09-19T14:08:02;20.90;99.90
48946;DHT22;34999;50.940;3.998;2023-09-19T14:10:31;21.00;99.90
48946;DHT22;34999;50.940;3.998;2023-09-19T14:12:59;21.00;99.90
48946;DHT22;34999;50.940;3.998;2023-09-19T14:15:28;20.90;99.90
48946;DHT22;34999;50.940;3.998;2023-09-19T14:17:57;20.80;99.90
48946;DHT22;34999;50.940;3.998;2023-09-19T14:20:27;20.70;99.90
48946;DHT22;34999;50.940;3.998;2023-09-19T14:22:57;20.70;99.90
48946;DHT22;34999;50.940;3.998;2023-09-19T14:25:27;20.70;99.90
48946;DHT22;34999;50.940;3.998;2023-09-19T14:27:57;20.60;99.90
48946;DHT22;34999;50.940;3.998;2023-09-19T14:30:26;20.50;99.90
48946;DHT22;34999;50.940;3.998;2023-09-19T14:32:54;20.50;99.90
48946;DHT22;34999;50.940;3.998;2023-09-19T14:35:25;20.40;99.90
48946;DHT22;34999;50.940;3.998;2023-09-19T14:37:53;20.30;99.90
48946;DHT22;34999;50.940;3.998;2023-09-19T14:40:23;20.20;99.90
48946;DHT22;34999;50.940;3.998;2023-09-19T14:42:53;20.10;99.90
48946;DHT22;34999;50.940;3.998;2023-09-19T14:45:21;20.10;99.90
48946;DHT22;34999;50.940;3.998;2023-09-19T14:47:52;20.00;99.90
48946;DHT22;34999;50.940;3.998;2023-09-19T14:50:22;19.90;99.90
48946;DHT22;34999;50.940;3.998;2023-09-19T14:52:50;19.90;99.90
48946;DHT22;34999;50.940;3.998;2023-09-19T14:55:22;19.80;99.90
48946;DHT22;34999;50.940;3.998;2023-09-19T14:57:51;19.80;99.90
48946;DHT22;34999;50.940;3.998;2023-09-19T15:00:20;19.70;99.90
48946;DHT22;34999;50.940;3.998;2023-09-19T15:02:50;19.70;99.90
48946;DHT22;34999;50.940;3.998;2023-09-19T15:05:20;19.70;99.90
48946;DHT22;34999;50.940;3.998;2023-09-19T15:07:49;19.80;99.90
48946;DHT22;34999;50.940;3.998;2023-09-19T15:13:46;19.80;99.90
48946;DHT22;34999;50.940;3.998;2023-09-19T15:16:15;19.80;99.90
48946;DHT22;34999;50.940;3.998;2023-09-19T15:18:44;19.70;99.90
48946;DHT22;34999;50.940;3.998;2023-09-19T15:21:15;19.70;99.90
48946;DHT22;34999;50.940;3.998;2023-09-19T15:23:46;19.70;99.90
48946;DHT22;34999;50.940;3.998;2023-09-19T15:26:15;19.70;99.90
48946;DHT22;34999;50.940;3.998;2023-09-19T15:28:49;19.70;99.90
48946;DHT22;34999;50.940;3.998;2023-09-19T15:31:17;19.80;99.90
48946;DHT22;34999;50.940;3.998;2023-09-19T15:33:46;19.80;99.90
48946;DHT22;34999;50.940;3.998;2023-09-19T15:36:15;19.70;99.90
48946;DHT22;34999;50.940;3.998;2023-09-19T15:38:57;19.70;99.90
48946;DHT22;34999;50.940;3.998;2023-09-19T15:41:28;19.60;99.90
48946;DHT22;34999;50.940;3.998;2023-09-19T15:43:59;19.60;99.90
48946;DHT22;34999;50.940;3.998;2023-09-19T15:46:29;19.60;99.90
48946;DHT22;34999;50.940;3.998;2023-09-19T15:48:58;19.60;99.90
48946;DHT22;34999;50.940;3.998;2023-09-19T15:51:27;19.60;99.90
48946;DHT22;34999;50.940;3.998;2023-09-19T15:53:56;19.60;99.90
48946;DHT22;34999;50.940;3.998;2023-09-19T15:56:27;19.60;99.90
48946;DHT22;34999;50.940;3.998;2023-09-19T15:58:55;19.50;99.90
48946;DHT22;34999;50.940;3.998;2023-09-19T16:01:25;19.60;99.90
48946;DHT22;34999;50.940;3.998;2023-09-19T16:03:54;19.60;99.90
48946;DHT22;34999;50.940;3.998;2023-09-19T16:06:25;19.60;99.90
48946;DHT22;34999;50.940;3.998;2023-09-19T16:08:56;19.60;99.90
48946;DHT22;34999;50.940;3.998;2023-09-19T16:11:26;19.50;99.90
48946;DHT22;34999;50.940;3.998;2023-09-19T16:13:56;19.50;99.90
48946;DHT22;34999;50.940;3.998;2023-09-19T16:16:26;19.40;99.90
48946;DHT22;34999;50.940;3.998;2023-09-19T16:18:58;19.40;99.90
48946;DHT22;34999;50.940;3.998;2023-09-19T16:21:29;19.40;99.90
48946;DHT22;34999;50.940;3.998;2023-09-19T16:23:59;19.40;99.90
48946;DHT22;34999;50.940;3.998;2023-09-19T16:26:28;19.40;99.90
48946;DHT22;34999;50.940;3.998;2023-09-19T16:28:59;19.30;99.90
48946;DHT22;34999;50.940;3.998;2023-09-19T16:31:31;19.30;99.90
48946;DHT22;34999;50.940;3.998;2023-09-19T16:34:00;19.40;99.90
48946;DHT22;34999;50.940;3.998;2023-09-19T16:36:28;19.30;99.90
48946;DHT22;34999;50.940;3.998;2023-09-19T16:38:59;19.20;99.90
48946;DHT22;34999;50.940;3.998;2023-09-19T16:41:27;19.10;99.90
48946;DHT22;34999;50.940;3.998;2023-09-19T16:43:56;19.10;99.90
48946;DHT22;34999;50.940;3.998;2023-09-19T16:46:26;18.90;99.90
48946;DHT22;34999;50.940;3.998;2023-09-19T16:48:55;18.80;99.90